sensor_id;sensor_type;location;lat;lon;timestamp;P1;durP1;ratioP1;P2;durP2;ratioP2
40621;SDS011;26324;52.040;11.528;2024-01-10T00:01:31;0.80;;;0.80;;
40621;SDS011;26324;52.040;11.528;2024-01-10T00:03:58;1.48;;;1.02;;
40621;SDS011;26324;52.040;11.528;2024-01-10T00:06:26;2.58;;;2.33;;
40621;SDS011;26324;52.040;11.528;2024-01-10T00:08:53;1.65;;;1.58;;
40621;SDS011;26324;52.040;11.528;2024-01-10T00:11:20;2.30;;;0.93;;
40621;SDS011;26324;52.040;11.528;2024-01-10T00:13:48;7.28;;;1.75;;
40621;SDS011;26324;52.040;11.528;2024-01-10T00:16:15;1.58;;;0.45;;
40621;SDS011;26324;52.040;11.528;2024-01-10T00:18:42;1.17;;;1.08;;
40621;SDS011;26324;52.040;11.528;2024-01-10T00:21:10;4.07;;;1.73;;
40621;SDS011;26324;52.040;11.528;2024-01-10T00:23:38;3.15;;;1.33;;
40621;SDS011;26324;52.040;11.528;2024-01-10T00:26:05;1.58;;;0.95;;
40621;SDS011;26324;52.040;11.528;2024-01-10T00:28:32;6.47;;;1.45;;
40621;SDS011;26324;52.040;11.528;2024-01-10T00:31:00;6.22;;;3.13;;
40621;SDS011;26324;52.040;11.528;2024-01-10T00:33:27;1.17;;;1.10;;
40621;SDS011;26324;52.040;11.528;2024-01-10T00:35:55;0.17;;;0.17;;
40621;SDS011;26324;52.040;11.528;2024-01-10T00:38:22;3.05;;;1.20;;
40621;SDS011;26324;52.040;11.528;2024-01-10T00:40:49;1.63;;;1.50;;
40621;SDS011;26324;52.040;11.528;2024-01-10T00:43:17;1.73;;;1.20;;
40621;SDS011;26324;52.040;11.528;2024-01-10T00:45:44;2.83;;;2.17;;
40621;SDS011;26324;52.040;11.528;2024-01-10T00:48:12;0.90;;;0.80;;
40621;SDS011;26324;52.040;11.528;2024-01-10T00:50:39;3.28;;;2.10;;
40621;SDS011;26324;52.040;11.528;2024-01-10T00:53:07;0.82;;;0.82;;
40621;SDS011;26324;52.040;11.528;2024-01-10T00:55:34;1.23;;;0.88;;
40621;SDS011;26324;52.040;11.528;2024-01-10T00:58:01;5.28;;;1.55;;
40621;SDS011;26324;52.040;11.528;2024-01-10T01:00:29;0.70;;;0.70;;
40621;SDS011;26324;52.040;11.528;2024-01-10T01:02:56;1.00;;;0.47;;
40621;SDS011;26324;52.040;11.528;2024-01-10T01:05:24;2.22;;;0.90;;
40621;SDS011;26324;52.040;11.528;2024-01-10T01:07:51;4.97;;;2.28;;
40621;SDS011;26324;52.040;11.528;2024-01-10T01:10:18;0.00;;;0.00;;
40621;SDS011;26324;52.040;11.528;2024-01-10T01:12:46;2.55;;;2.35;;
40621;SDS011;26324;52.040;11.528;2024-01-10T01:15:13;1.60;;;1.38;;
40621;SDS011;26324;52.040;11.528;2024-01-10T01:17:41;1.77;;;0.28;;
40621;SDS011;26324;52.040;11.528;2024-01-10T01:20:08;1.48;;;1.33;;
40621;SDS011;26324;52.040;11.528;2024-01-10T01:22:36;1.23;;;1.13;;
40621;SDS011;26324;52.040;11.528;2024-01-10T01:25:03;1.48;;;1.48;;
40621;SDS011;26324;52.040;11.528;2024-01-10T01:27:31;1.30;;;1.20;;
40621;SDS011;26324;52.040;11.528;2024-01-10T01:29:58;6.32;;;0.82;;
40621;SDS011;26324;52.040;11.528;2024-01-10T01:32:26;3.45;;;1.15;;
40621;SDS011;26324;52.040;11.528;2024-01-10T01:34:53;0.63;;;0.45;;
40621;SDS011;26324;52.040;11.528;2024-01-10T01:37:21;0.45;;;0.45;;
40621;SDS011;26324;52.040;11.528;2024-01-10T01:39:48;3.10;;;2.83;;
40621;SDS011;26324;52.040;11.528;2024-01-10T01:42:16;3.85;;;1.83;;
40621;SDS011;26324;52.040;11.528;2024-01-10T01:44:43;3.70;;;2.88;;
40621;SDS011;26324;52.040;11.528;2024-01-10T01:47:11;2.60;;;1.80;;
40621;SDS011;26324;52.040;11.528;2024-01-10T01:49:38;3.80;;;2.65;;
40621;SDS011;26324;52.040;11.528;2024-01-10T01:52:06;2.45;;;0.95;;
40621;SDS011;26324;52.040;11.528;2024-01-10T01:54:33;0.25;;;0.25;;
40621;SDS011;26324;52.040;11.528;2024-01-10T01:57:02;4.40;;;1.10;;
40621;SDS011;26324;52.040;11.528;2024-01-10T01:59:29;4.85;;;2.00;;
40621;SDS011;26324;52.040;11.528;2024-01-10T02:01:57;0.43;;;0.43;;
40621;SDS011;26324;52.040;11.528;2024-01-10T02:04:28;0.88;;;0.82;;
40621;SDS011;26324;52.040;11.528;2024-01-10T02:06:57;2.67;;;1.10;;
40621;SDS011;26324;52.040;11.528;2024-01-10T02:09:25;1.15;;;1.08;;
40621;SDS011;26324;52.040;11.528;2024-01-10T02:11:52;0.45;;;0.30;;
40621;SDS011;26324;52.040;11.528;2024-01-10T02:14:20;0.43;;;0.43;;
40621;SDS011;26324;52.040;11.528;2024-01-10T02:16:48;1.15;;;1.02;;
40621;SDS011;26324;52.040;11.528;2024-01-10T02:19:18;2.13;;;1.95;;
40621;SDS011;26324;52.040;11.528;2024-01-10T02:21:49;1.40;;;0.88;;
40621;SDS011;26324;52.040;11.528;2024-01-10T02:24:17;0.38;;;0.38;;
40621;SDS011;26324;52.040;11.528;2024-01-10T02:26:44;2.25;;;1.50;;
40621;SDS011;26324;52.040;11.528;2024-01-10T02:29:11;6.15;;;1.70;;
40621;SDS011;26324;52.040;11.528;2024-01-10T02:31:39;4.45;;;1.23;;
40621;SDS011;26324;52.040;11.528;2024-01-10T02:34:06;0.28;;;0.28;;
40621;SDS011;26324;52.040;11.528;2024-01-10T02:36:34;7.20;;;3.47;;
40621;SDS011;26324;52.040;11.528;2024-01-10T02:39:01;1.42;;;1.20;;
40621;SDS011;26324;52.040;11.528;2024-01-10T02:41:28;2.42;;;2.20;;
40621;SDS011;26324;52.040;11.528;2024-01-10T02:43:56;0.95;;;0.50;;
40621;SDS011;26324;52.040;11.528;2024-01-10T02:46:26;2.03;;;1.13;;
40621;SDS011;26324;52.040;11.528;2024-01-10T02:48:54;1.95;;;0.95;;
40621;SDS011;26324;52.040;11.528;2024-01-10T02:51:23;0.60;;;0.60;;
40621;SDS011;26324;52.040;11.528;2024-01-10T02:53:53;2.53;;;2.35;;
40621;SDS011;26324;52.040;11.528;2024-01-10T02:56:21;4.40;;;2.08;;
40621;SDS011;26324;52.040;11.528;2024-01-10T02:58:48;3.10;;;1.42;;
40621;SDS011;26324;52.040;11.528;2024-01-10T03:01:15;2.25;;;1.15;;
40621;SDS011;26324;52.040;11.528;2024-01-10T03:03:43;7.13;;;2.45;;
40621;SDS011;26324;52.040;11.528;2024-01-10T03:06:10;3.80;;;0.82;;
40621;SDS011;26324;52.040;11.528;2024-01-10T03:08:37;8.25;;;2.42;;
40621;SDS011;26324;52.040;11.528;2024-01-10T03:11:05;1.98;;;1.88;;
40621;SDS011;26324;52.040;11.528;2024-01-10T03:13:32;0.00;;;0.00;;
40621;SDS011;26324;52.040;11.528;2024-01-10T03:16:00;1.65;;;1.55;;
40621;SDS011;26324;52.040;11.528;2024-01-10T03:18:27;9.75;;;3.35;;
40621;SDS011;26324;52.040;11.528;2024-01-10T03:20:55;4.50;;;2.20;;
40621;SDS011;26324;52.040;11.528;2024-01-10T03:23:22;2.70;;;2.50;;
40621;SDS011;26324;52.040;11.528;2024-01-10T03:25:50;3.22;;;1.38;;
40621;SDS011;26324;52.040;11.528;2024-01-10T03:28:17;4.60;;;3.88;;
40621;SDS011;26324;52.040;11.528;2024-01-10T03:30:44;0.15;;;0.15;;
40621;SDS011;26324;52.040;11.528;2024-01-10T03:33:12;2.75;;;0.88;;
40621;SDS011;26324;52.040;11.528;2024-01-10T03:35:39;3.65;;;1.55;;
40621;SDS011;26324;52.040;11.528;2024-01-10T03:38:07;2.30;;;1.17;;
40621;SDS011;26324;52.040;11.528;2024-01-10T03:40:34;4.65;;;3.10;;
40621;SDS011;26324;52.040;11.528;2024-01-10T03:43:02;5.30;;;1.38;;
40621;SDS011;26324;52.040;11.528;2024-01-10T03:45:29;3.35;;;2.53;;
40621;SDS011;26324;52.040;11.528;2024-01-10T03:47:56;19.88;;;3.35;;
40621;SDS011;26324;52.040;11.528;2024-01-10T03:50:24;1.35;;;0.98;;
40621;SDS011;26324;52.040;11.528;2024-01-10T03:52:51;4.50;;;2.25;;
40621;SDS011;26324;52.040;11.528;2024-01-10T03:55:19;6.43;;;2.20;;
40621;SDS011;26324;52.040;11.528;2024-01-10T03:57:46;2.78;;;2.00;;
40621;SDS011;26324;52.040;11.528;2024-01-10T04:00:13;1.60;;;1.45;;
40621;SDS011;26324;52.040;11.528;2024-01-10T04:02:41;1.42;;;1.42;;
40621;SDS011;26324;52.040;11.528;2024-01-10T04:05:08;1.80;;;1.20;;
40621;SDS011;26324;52.040;11.528;2024-01-10T04:07:39;3.00;;;2.03;;
40621;SDS011;26324;52.040;11.528;2024-01-10T04:10:08;0.93;;;0.93;;
40621;SDS011;26324;52.040;11.528;2024-01-10T04:12:41;1.50;;;1.40;;
40621;SDS011;26324;52.040;11.528;2024-01-10T04:15:09;3.08;;;2.85;;
40621;SDS011;26324;52.040;11.528;2024-01-10T04:17:38;2.58;;;1.65;;
40621;SDS011;26324;52.040;11.528;2024-01-10T04:20:05;4.38;;;2.60;;
40621;SDS011;26324;52.040;11.528;2024-01-10T04:22:34;1.02;;;0.93;;
40621;SDS011;26324;52.040;11.528;2024-01-10T04:25:01;2.15;;;1.13;;
40621;SDS011;26324;52.040;11.528;2024-01-10T04:27:31;0.75;;;0.75;;
40621;SDS011;26324;52.040;11.528;2024-01-10T04:29:59;3.70;;;1.13;;
40621;SDS011;26324;52.040;11.528;2024-01-10T04:32:26;1.67;;;1.27;;
40621;SDS011;26324;52.040;11.528;2024-01-10T04:34:54;1.63;;;1.60;;
40621;SDS011;26324;52.040;11.528;2024-01-10T04:37:21;1.55;;;1.45;;
40621;SDS011;26324;52.040;11.528;2024-01-10T04:39:49;2.30;;;2.10;;
40621;SDS011;26324;52.040;11.528;2024-01-10T04:42:16;5.20;;;2.10;;
40621;SDS011;26324;52.040;11.528;2024-01-10T04:44:44;2.33;;;2.22;;
40621;SDS011;26324;52.040;11.528;2024-01-10T04:47:11;1.65;;;1.55;;
40621;SDS011;26324;52.040;11.528;2024-01-10T04:49:39;1.83;;;1.73;;
40621;SDS011;26324;52.040;11.528;2024-01-10T04:52:06;1.50;;;1.45;;
40621;SDS011;26324;52.040;11.528;2024-01-10T04:54:34;1.30;;;1.20;;
40621;SDS011;26324;52.040;11.528;2024-01-10T04:57:01;4.00;;;2.08;;
40621;SDS011;26324;52.040;11.528;2024-01-10T04:59:28;6.80;;;2.25;;
40621;SDS011;26324;52.040;11.528;2024-01-10T05:01:55;8.52;;;4.55;;
40621;SDS011;26324;52.040;11.528;2024-01-10T05:04:23;0.93;;;0.47;;
40621;SDS011;26324;52.040;11.528;2024-01-10T05:06:50;3.35;;;1.65;;
40621;SDS011;26324;52.040;11.528;2024-01-10T05:09:18;4.15;;;2.50;;
40621;SDS011;26324;52.040;11.528;2024-01-10T05:11:45;2.10;;;0.80;;
40621;SDS011;26324;52.040;11.528;2024-01-10T05:14:18;6.45;;;2.30;;
40621;SDS011;26324;52.040;11.528;2024-01-10T05:16:48;5.68;;;2.33;;
40621;SDS011;26324;52.040;11.528;2024-01-10T05:19:16;3.67;;;1.73;;
40621;SDS011;26324;52.040;11.528;2024-01-10T05:21:43;4.30;;;2.00;;
40621;SDS011;26324;52.040;11.528;2024-01-10T05:24:11;3.45;;;2.13;;
40621;SDS011;26324;52.040;11.528;2024-01-10T05:26:39;7.72;;;2.08;;
40621;SDS011;26324;52.040;11.528;2024-01-10T05:29:06;1.90;;;1.45;;
40621;SDS011;26324;52.040;11.528;2024-01-10T05:31:34;3.05;;;2.30;;
40621;SDS011;26324;52.040;11.528;2024-01-10T05:34:02;2.53;;;2.33;;
40621;SDS011;26324;52.040;11.528;2024-01-10T05:36:29;3.83;;;3.00;;
40621;SDS011;26324;52.040;11.528;2024-01-10T05:38:56;0.63;;;0.63;;
40621;SDS011;26324;52.040;11.528;2024-01-10T05:41:24;2.63;;;1.65;;
40621;SDS011;26324;52.040;11.528;2024-01-10T05:43:51;4.05;;;1.67;;
40621;SDS011;26324;52.040;11.528;2024-01-10T05:46:19;5.07;;;0.95;;
40621;SDS011;26324;52.040;11.528;2024-01-10T05:48:46;2.85;;;0.68;;
40621;SDS011;26324;52.040;11.528;2024-01-10T05:51:15;3.17;;;1.20;;
40621;SDS011;26324;52.040;11.528;2024-01-10T05:53:42;0.88;;;0.80;;
40621;SDS011;26324;52.040;11.528;2024-01-10T05:56:10;2.78;;;1.65;;
40621;SDS011;26324;52.040;11.528;2024-01-10T05:58:37;8.07;;;1.20;;
40621;SDS011;26324;52.040;11.528;2024-01-10T06:01:04;2.78;;;1.17;;
40621;SDS011;26324;52.040;11.528;2024-01-10T06:03:35;5.28;;;1.52;;
40621;SDS011;26324;52.040;11.528;2024-01-10T06:06:03;0.93;;;0.75;;
40621;SDS011;26324;52.040;11.528;2024-01-10T06:08:31;2.47;;;1.48;;
40621;SDS011;26324;52.040;11.528;2024-01-10T06:10:58;1.17;;;1.15;;
40621;SDS011;26324;52.040;11.528;2024-01-10T06:13:31;1.98;;;1.85;;
40621;SDS011;26324;52.040;11.528;2024-01-10T06:16:15;2.47;;;1.83;;
40621;SDS011;26324;52.040;11.528;2024-01-10T06:18:43;0.68;;;0.68;;
40621;SDS011;26324;52.040;11.528;2024-01-10T06:21:11;1.05;;;1.00;;
40621;SDS011;26324;52.040;11.528;2024-01-10T06:23:38;3.92;;;2.05;;
40621;SDS011;26324;52.040;11.528;2024-01-10T06:26:05;1.90;;;1.20;;
40621;SDS011;26324;52.040;11.528;2024-01-10T06:28:33;2.25;;;0.77;;
40621;SDS011;26324;52.040;11.528;2024-01-10T06:31:00;1.17;;;1.15;;
40621;SDS011;26324;52.040;11.528;2024-01-10T06:33:28;3.70;;;2.13;;
40621;SDS011;26324;52.040;11.528;2024-01-10T06:35:56;4.70;;;3.17;;
40621;SDS011;26324;52.040;11.528;2024-01-10T06:38:23;1.73;;;1.63;;
40621;SDS011;26324;52.040;11.528;2024-01-10T06:40:51;2.03;;;1.83;;
40621;SDS011;26324;52.040;11.528;2024-01-10T06:43:18;0.65;;;0.57;;
40621;SDS011;26324;52.040;11.528;2024-01-10T06:45:46;1.45;;;1.35;;
40621;SDS011;26324;52.040;11.528;2024-01-10T06:48:14;1.95;;;1.75;;
40621;SDS011;26324;52.040;11.528;2024-01-10T06:50:42;0.95;;;0.65;;
40621;SDS011;26324;52.040;11.528;2024-01-10T06:53:11;8.20;;;2.50;;
40621;SDS011;26324;52.040;11.528;2024-01-10T06:55:38;0.38;;;0.38;;
40621;SDS011;26324;52.040;11.528;2024-01-10T06:58:05;2.97;;;2.30;;
40621;SDS011;26324;52.040;11.528;2024-01-10T07:00:33;2.67;;;2.35;;
40621;SDS011;26324;52.040;11.528;2024-01-10T07:03:01;1.58;;;1.48;;
40621;SDS011;26324;52.040;11.528;2024-01-10T07:05:29;1.63;;;1.52;;
40621;SDS011;26324;52.040;11.528;2024-01-10T07:07:58;4.35;;;2.58;;
40621;SDS011;26324;52.040;11.528;2024-01-10T07:10:29;0.55;;;0.55;;
40621;SDS011;26324;52.040;11.528;2024-01-10T07:12:57;1.17;;;1.08;;
40621;SDS011;26324;52.040;11.528;2024-01-10T07:15:24;2.50;;;1.73;;
40621;SDS011;26324;52.040;11.528;2024-01-10T07:17:51;19.38;;;2.78;;
40621;SDS011;26324;52.040;11.528;2024-01-10T07:20:19;7.72;;;1.42;;
40621;SDS011;26324;52.040;11.528;2024-01-10T07:22:46;4.57;;;3.03;;
40621;SDS011;26324;52.040;11.528;2024-01-10T07:25:16;0.82;;;0.82;;
40621;SDS011;26324;52.040;11.528;2024-01-10T07:27:44;0.47;;;0.47;;
40621;SDS011;26324;52.040;11.528;2024-01-10T07:30:11;0.65;;;0.65;;
40621;SDS011;26324;52.040;11.528;2024-01-10T07:32:42;0.00;;;0.00;;
40621;SDS011;26324;52.040;11.528;2024-01-10T07:35:11;1.25;;;1.17;;
40621;SDS011;26324;52.040;11.528;2024-01-10T07:37:41;2.10;;;1.27;;
40621;SDS011;26324;52.040;11.528;2024-01-10T07:40:09;2.30;;;2.13;;
40621;SDS011;26324;52.040;11.528;2024-01-10T07:42:42;2.10;;;1.77;;
40621;SDS011;26324;52.040;11.528;2024-01-10T07:45:10;6.68;;;3.42;;
40621;SDS011;26324;52.040;11.528;2024-01-10T07:47:38;3.38;;;2.35;;
40621;SDS011;26324;52.040;11.528;2024-01-10T07:50:09;7.07;;;2.47;;
40621;SDS011;26324;52.040;11.528;2024-01-10T07:52:39;1.58;;;0.70;;
40621;SDS011;26324;52.040;11.528;2024-01-10T07:55:07;4.55;;;3.13;;
40621;SDS011;26324;52.040;11.528;2024-01-10T07:57:35;5.68;;;2.53;;
40621;SDS011;26324;52.040;11.528;2024-01-10T08:00:06;2.78;;;2.17;;
40621;SDS011;26324;52.040;11.528;2024-01-10T08:02:37;4.32;;;2.03;;
40621;SDS011;26324;52.040;11.528;2024-01-10T08:05:06;2.97;;;2.70;;
40621;SDS011;26324;52.040;11.528;2024-01-10T08:07:38;1.23;;;1.13;;
40621;SDS011;26324;52.040;11.528;2024-01-10T08:10:06;1.63;;;1.42;;
40621;SDS011;26324;52.040;11.528;2024-01-10T08:12:36;7.72;;;2.50;;
40621;SDS011;26324;52.040;11.528;2024-01-10T08:15:05;3.33;;;2.80;;
40621;SDS011;26324;52.040;11.528;2024-01-10T08:17:33;0.85;;;0.68;;
40621;SDS011;26324;52.040;11.528;2024-01-10T08:20:01;2.58;;;1.67;;
40621;SDS011;26324;52.040;11.528;2024-01-10T08:22:31;5.00;;;2.42;;
40621;SDS011;26324;52.040;11.528;2024-01-10T08:24:58;2.97;;;2.70;;
40621;SDS011;26324;52.040;11.528;2024-01-10T08:27:26;7.43;;;3.50;;
40621;SDS011;26324;52.040;11.528;2024-01-10T08:29:54;6.18;;;2.45;;
40621;SDS011;26324;52.040;11.528;2024-01-10T08:32:21;6.68;;;2.30;;
40621;SDS011;26324;52.040;11.528;2024-01-10T08:34:49;0.98;;;0.45;;
40621;SDS011;26324;52.040;11.528;2024-01-10T08:37:16;3.35;;;2.28;;
40621;SDS011;26324;52.040;11.528;2024-01-10T08:39:44;2.95;;;1.50;;
40621;SDS011;26324;52.040;11.528;2024-01-10T08:42:11;5.30;;;2.28;;
40621;SDS011;26324;52.040;11.528;2024-01-10T08:44:38;1.90;;;1.77;;
40621;SDS011;26324;52.040;11.528;2024-01-10T08:47:06;3.10;;;1.77;;
40621;SDS011;26324;52.040;11.528;2024-01-10T08:49:33;8.05;;;2.90;;
40621;SDS011;26324;52.040;11.528;2024-01-10T08:52:01;2.42;;;1.65;;
40621;SDS011;26324;52.040;11.528;2024-01-10T08:54:28;6.05;;;3.22;;
40621;SDS011;26324;52.040;11.528;2024-01-10T08:56:56;3.88;;;3.35;;
40621;SDS011;26324;52.040;11.528;2024-01-10T08:59:23;7.65;;;3.83;;
40621;SDS011;26324;52.040;11.528;2024-01-10T09:01:51;5.13;;;3.17;;
40621;SDS011;26324;52.040;11.528;2024-01-10T09:04:19;2.95;;;2.10;;
40621;SDS011;26324;52.040;11.528;2024-01-10T09:06:46;5.45;;;2.00;;
40621;SDS011;26324;52.040;11.528;2024-01-10T09:09:14;6.68;;;2.28;;
40621;SDS011;26324;52.040;11.528;2024-01-10T09:11:41;2.00;;;1.85;;
40621;SDS011;26324;52.040;11.528;2024-01-10T09:14:12;2.75;;;2.17;;
40621;SDS011;26324;52.040;11.528;2024-01-10T09:16:39;8.50;;;3.10;;
40621;SDS011;26324;52.040;11.528;2024-01-10T09:19:07;9.98;;;6.22;;
40621;SDS011;26324;52.040;11.528;2024-01-10T09:21:39;3.97;;;2.88;;
40621;SDS011;26324;52.040;11.528;2024-01-10T09:24:07;11.13;;;3.35;;
40621;SDS011;26324;52.040;11.528;2024-01-10T09:26:52;16.92;;;6.00;;
40621;SDS011;26324;52.040;11.528;2024-01-10T09:29:20;8.43;;;5.65;;
40621;SDS011;26324;52.040;11.528;2024-01-10T09:31:48;7.28;;;2.70;;
40621;SDS011;26324;52.040;11.528;2024-01-10T09:34:16;6.88;;;4.13;;
40621;SDS011;26324;52.040;11.528;2024-01-10T09:36:44;3.83;;;2.83;;
40621;SDS011;26324;52.040;11.528;2024-01-10T09:39:11;7.22;;;3.60;;
40621;SDS011;26324;52.040;11.528;2024-01-10T09:41:42;7.93;;;6.38;;
40621;SDS011;26324;52.040;11.528;2024-01-10T09:44:15;6.35;;;4.22;;
40621;SDS011;26324;52.040;11.528;2024-01-10T09:46:49;20.15;;;7.20;;
40621;SDS011;26324;52.040;11.528;2024-01-10T09:49:19;11.65;;;6.93;;
40621;SDS011;26324;52.040;11.528;2024-01-10T09:51:51;6.38;;;3.42;;
40621;SDS011;26324;52.040;11.528;2024-01-10T09:54:24;10.00;;;4.68;;
40621;SDS011;26324;52.040;11.528;2024-01-10T09:56:53;5.70;;;4.15;;
40621;SDS011;26324;52.040;11.528;2024-01-10T09:59:20;8.95;;;4.53;;
40621;SDS011;26324;52.040;11.528;2024-01-10T10:01:48;10.52;;;5.13;;
40621;SDS011;26324;52.040;11.528;2024-01-10T10:04:15;13.85;;;6.45;;
40621;SDS011;26324;52.040;11.528;2024-01-10T10:06:47;15.70;;;5.18;;
40621;SDS011;26324;52.040;11.528;2024-01-10T10:09:14;15.65;;;5.45;;
40621;SDS011;26324;52.040;11.528;2024-01-10T10:11:43;10.55;;;5.65;;
40621;SDS011;26324;52.040;11.528;2024-01-10T10:14:14;16.52;;;6.25;;
40621;SDS011;26324;52.040;11.528;2024-01-10T10:16:43;6.88;;;4.40;;
40621;SDS011;26324;52.040;11.528;2024-01-10T10:19:10;16.98;;;7.72;;
40621;SDS011;26324;52.040;11.528;2024-01-10T10:21:47;18.63;;;6.85;;
40621;SDS011;26324;52.040;11.528;2024-01-10T10:24:14;25.23;;;7.28;;
40621;SDS011;26324;52.040;11.528;2024-01-10T10:26:45;14.35;;;6.57;;
40621;SDS011;26324;52.040;11.528;2024-01-10T10:29:12;7.13;;;5.57;;
40621;SDS011;26324;52.040;11.528;2024-01-10T10:31:47;14.80;;;6.13;;
40621;SDS011;26324;52.040;11.528;2024-01-10T10:34:16;18.48;;;7.32;;
40621;SDS011;26324;52.040;11.528;2024-01-10T10:36:48;19.92;;;7.78;;
40621;SDS011;26324;52.040;11.528;2024-01-10T10:39:16;14.73;;;7.18;;
40621;SDS011;26324;52.040;11.528;2024-01-10T10:41:44;17.67;;;6.47;;
40621;SDS011;26324;52.040;11.528;2024-01-10T10:44:15;11.95;;;6.38;;
40621;SDS011;26324;52.040;11.528;2024-01-10T10:46:49;16.17;;;7.00;;
40621;SDS011;26324;52.040;11.528;2024-01-10T10:49:34;17.92;;;9.38;;
40621;SDS011;26324;52.040;11.528;2024-01-10T10:52:02;20.20;;;8.35;;
40621;SDS011;26324;52.040;11.528;2024-01-10T10:54:30;15.93;;;7.05;;
40621;SDS011;26324;52.040;11.528;2024-01-10T10:56:59;24.55;;;7.38;;
40621;SDS011;26324;52.040;11.528;2024-01-10T10:59:34;21.38;;;7.78;;
40621;SDS011;26324;52.040;11.528;2024-01-10T11:02:04;14.10;;;7.30;;
40621;SDS011;26324;52.040;11.528;2024-01-10T11:04:36;19.88;;;7.15;;
40621;SDS011;26324;52.040;11.528;2024-01-10T11:07:07;24.13;;;8.05;;
40621;SDS011;26324;52.040;11.528;2024-01-10T11:09:35;19.30;;;9.10;;
40621;SDS011;26324;52.040;11.528;2024-01-10T11:18:08;27.83;;;13.50;;
40621;SDS011;26324;52.040;11.528;2024-01-10T11:23:45;14.73;;;8.05;;
40621;SDS011;26324;52.040;11.528;2024-01-10T11:26:15;15.25;;;7.15;;
40621;SDS011;26324;52.040;11.528;2024-01-10T11:28:43;20.27;;;7.82;;
40621;SDS011;26324;52.040;11.528;2024-01-10T11:31:13;20.95;;;7.65;;
40621;SDS011;26324;52.040;11.528;2024-01-10T11:33:42;19.30;;;8.07;;
40621;SDS011;26324;52.040;11.528;2024-01-10T11:36:15;20.50;;;7.03;;
40621;SDS011;26324;52.040;11.528;2024-01-10T11:41:21;16.73;;;7.07;;
40621;SDS011;26324;52.040;11.528;2024-01-10T11:44:36;19.25;;;7.30;;
40621;SDS011;26324;52.040;11.528;2024-01-10T11:46:56;19.10;;;7.78;;
40621;SDS011;26324;52.040;11.528;2024-01-10T11:49:25;22.70;;;9.25;;
40621;SDS011;26324;52.040;11.528;2024-01-10T11:51:54;19.52;;;9.30;;
40621;SDS011;26324;52.040;11.528;2024-01-10T11:54:40;25.42;;;9.63;;
40621;SDS011;26324;52.040;11.528;2024-01-10T11:57:11;23.95;;;9.30;;
40621;SDS011;26324;52.040;11.528;2024-01-10T11:59:44;22.30;;;9.05;;
40621;SDS011;26324;52.040;11.528;2024-01-10T12:02:14;25.70;;;10.35;;
40621;SDS011;26324;52.040;11.528;2024-01-10T12:04:44;26.15;;;9.25;;
40621;SDS011;26324;52.040;11.528;2024-01-10T12:07:15;21.88;;;9.25;;
40621;SDS011;26324;52.040;11.528;2024-01-10T12:09:47;23.63;;;9.77;;
40621;SDS011;26324;52.040;11.528;2024-01-10T12:12:15;25.92;;;11.00;;
40621;SDS011;26324;52.040;11.528;2024-01-10T12:14:43;35.28;;;11.35;;
40621;SDS011;26324;52.040;11.528;2024-01-10T12:17:11;24.45;;;9.50;;
40621;SDS011;26324;52.040;11.528;2024-01-10T12:19:39;24.52;;;11.25;;
40621;SDS011;26324;52.040;11.528;2024-01-10T12:22:08;28.60;;;12.07;;
40621;SDS011;26324;52.040;11.528;2024-01-10T12:24:42;29.88;;;11.82;;
40621;SDS011;26324;52.040;11.528;2024-01-10T12:27:15;28.25;;;11.05;;
40621;SDS011;26324;52.040;11.528;2024-01-10T12:29:44;26.70;;;11.75;;
40621;SDS011;26324;52.040;11.528;2024-01-10T12:32:16;27.42;;;11.45;;
40621;SDS011;26324;52.040;11.528;2024-01-10T12:34:45;28.35;;;11.95;;
40621;SDS011;26324;52.040;11.528;2024-01-10T12:37:13;28.73;;;12.20;;
40621;SDS011;26324;52.040;11.528;2024-01-10T12:39:40;28.90;;;12.18;;
40621;SDS011;26324;52.040;11.528;2024-01-10T12:42:08;36.78;;;12.95;;
40621;SDS011;26324;52.040;11.528;2024-01-10T12:44:36;28.50;;;11.60;;
40621;SDS011;26324;52.040;11.528;2024-01-10T12:47:03;29.70;;;11.95;;
40621;SDS011;26324;52.040;11.528;2024-01-10T12:49:31;28.70;;;13.35;;
40621;SDS011;26324;52.040;11.528;2024-01-10T12:51:59;25.75;;;11.10;;
40621;SDS011;26324;52.040;11.528;2024-01-10T12:54:26;34.30;;;13.63;;
40621;SDS011;26324;52.040;11.528;2024-01-10T12:56:53;29.48;;;11.82;;
40621;SDS011;26324;52.040;11.528;2024-01-10T12:59:22;31.48;;;12.57;;
40621;SDS011;26324;52.040;11.528;2024-01-10T13:01:50;30.23;;;12.88;;
40621;SDS011;26324;52.040;11.528;2024-01-10T13:04:17;28.58;;;11.82;;
40621;SDS011;26324;52.040;11.528;2024-01-10T13:06:46;29.60;;;12.90;;
40621;SDS011;26324;52.040;11.528;2024-01-10T13:09:13;31.23;;;12.73;;
40621;SDS011;26324;52.040;11.528;2024-01-10T13:11:41;31.95;;;12.82;;
40621;SDS011;26324;52.040;11.528;2024-01-10T13:14:08;33.20;;;13.02;;
40621;SDS011;26324;52.040;11.528;2024-01-10T13:16:36;29.08;;;12.88;;
40621;SDS011;26324;52.040;11.528;2024-01-10T13:19:19;29.15;;;12.73;;
40621;SDS011;26324;52.040;11.528;2024-01-10T13:21:47;30.30;;;13.50;;
40621;SDS011;26324;52.040;11.528;2024-01-10T13:24:14;29.90;;;12.05;;
40621;SDS011;26324;52.040;11.528;2024-01-10T13:26:42;27.17;;;12.88;;
40621;SDS011;26324;52.040;11.528;2024-01-10T13:29:09;29.30;;;13.43;;
40621;SDS011;26324;52.040;11.528;2024-01-10T13:31:37;31.80;;;13.15;;
40621;SDS011;26324;52.040;11.528;2024-01-10T13:34:04;31.60;;;12.68;;
40621;SDS011;26324;52.040;11.528;2024-01-10T13:36:31;29.80;;;12.23;;
40621;SDS011;26324;52.040;11.528;2024-01-10T13:38:59;35.53;;;12.95;;
40621;SDS011;26324;52.040;11.528;2024-01-10T13:41:51;27.25;;;12.15;;
40621;SDS011;26324;52.040;11.528;2024-01-10T13:44:18;26.60;;;11.55;;
40621;SDS011;26324;52.040;11.528;2024-01-10T13:46:46;31.27;;;12.32;;
40621;SDS011;26324;52.040;11.528;2024-01-10T13:49:16;29.40;;;11.48;;
40621;SDS011;26324;52.040;11.528;2024-01-10T13:51:44;26.52;;;12.07;;
40621;SDS011;26324;52.040;11.528;2024-01-10T13:54:11;28.92;;;12.48;;
40621;SDS011;26324;52.040;11.528;2024-01-10T13:56:38;25.95;;;13.13;;
40621;SDS011;26324;52.040;11.528;2024-01-10T13:59:07;31.80;;;11.90;;
40621;SDS011;26324;52.040;11.528;2024-01-10T14:01:34;31.48;;;11.55;;
40621;SDS011;26324;52.040;11.528;2024-01-10T14:04:02;27.30;;;11.15;;
40621;SDS011;26324;52.040;11.528;2024-01-10T14:06:29;27.02;;;12.50;;
40621;SDS011;26324;52.040;11.528;2024-01-10T14:08:56;28.50;;;11.63;;
40621;SDS011;26324;52.040;11.528;2024-01-10T14:11:24;27.35;;;11.80;;
40621;SDS011;26324;52.040;11.528;2024-01-10T14:16:21;29.55;;;11.40;;
40621;SDS011;26324;52.040;11.528;2024-01-10T14:18:48;24.98;;;10.05;;
40621;SDS011;26324;52.040;11.528;2024-01-10T14:21:15;27.25;;;12.48;;
40621;SDS011;26324;52.040;11.528;2024-01-10T14:23:43;26.80;;;10.40;;
40621;SDS011;26324;52.040;11.528;2024-01-10T14:26:10;25.90;;;10.60;;
40621;SDS011;26324;52.040;11.528;2024-01-10T14:28:38;29.58;;;12.52;;
40621;SDS011;26324;52.040;11.528;2024-01-10T14:31:05;69.68;;;25.33;;
40621;SDS011;26324;52.040;11.528;2024-01-10T14:33:48;29.48;;;12.63;;
40621;SDS011;26324;52.040;11.528;2024-01-10T14:36:16;25.13;;;11.02;;
40621;SDS011;26324;52.040;11.528;2024-01-10T14:38:43;29.15;;;11.23;;
40621;SDS011;26324;52.040;11.528;2024-01-10T14:41:11;24.25;;;9.90;;
40621;SDS011;26324;52.040;11.528;2024-01-10T14:43:38;24.88;;;9.23;;
40621;SDS011;26324;52.040;11.528;2024-01-10T14:46:06;20.73;;;7.72;;
40621;SDS011;26324;52.040;11.528;2024-01-10T14:48:33;30.52;;;9.55;;
40621;SDS011;26324;52.040;11.528;2024-01-10T14:51:02;13.40;;;5.93;;